createdAt,value
2022-11-29T00:01:51.919Z,98018.52
2022-11-29T00:04:22.509Z,98019.92
2022-11-29T00:06:52.992Z,98018.04
2022-11-29T00:09:23.382Z,98019.05
2022-11-29T00:12:11.387Z,98017.86
2022-11-29T00:14:42.657Z,98015.11
2022-11-29T00:17:13.386Z,98016.64
2022-11-29T00:19:45.120Z,98016.15
2022-11-29T00:22:15.881Z,98014.09
2022-11-29T00:24:46.537Z,98016.84
2022-11-29T00:27:17.249Z,98013.04
2022-11-29T00:29:48.139Z,98013.23
2022-11-29T00:32:18.917Z,98011.17
2022-11-29T00:34:49.575Z,98011.20
2022-11-29T00:37:20.302Z,98018.94
2022-11-29T00:39:50.880Z,98021.69
2022-11-29T00:42:21.504Z,98021.19
2022-11-29T00:44:52.118Z,98020.52
2022-11-29T00:47:22.641Z,98022.39
2022-11-29T00:49:53.132Z,98019.65
2022-11-29T00:52:23.611Z,98019.81
2022-11-29T00:54:53.978Z,98019.65
2022-11-29T00:57:24.375Z,98021.19
2022-11-29T00:59:54.851Z,98018.10
2022-11-29T01:02:25.218Z,98022.05
2022-11-29T01:04:55.652Z,98023.10
2022-11-29T01:07:26.085Z,98023.46
2022-11-29T01:09:56.582Z,98025.88
2022-11-29T01:12:27.465Z,98027.95
2022-11-29T01:14:58.956Z,98028.45
2022-11-29T01:17:29.445Z,98030.50
2022-11-29T01:19:59.962Z,98031.69
2022-11-29T01:22:30.432Z,98032.04
2022-11-29T01:25:01.125Z,98029.95
2022-11-29T01:27:31.756Z,98028.73
2022-11-29T01:30:02.438Z,98031.28
2022-11-29T01:32:33.352Z,98030.92
2022-11-29T01:35:04.322Z,98034.19
2022-11-29T01:37:35.143Z,98036.61
2022-11-29T01:40:08.367Z,98037.98
2022-11-29T01:42:38.741Z,98037.80
2022-11-29T01:45:23.638Z,98038.67
2022-11-29T01:47:56.396Z,98041.42
2022-11-29T01:50:27.231Z,98044.72
2022-11-29T01:52:57.616Z,98044.38
2022-11-29T01:55:27.995Z,98044.89
2022-11-29T01:57:58.614Z,98042.48
2022-11-29T02:00:29.613Z,98046.77
2022-11-29T02:03:03.335Z,98045.21
2022-11-29T02:05:35.333Z,98042.80
2022-11-29T02:08:06.947Z,98038.33
2022-11-29T02:10:45.533Z,98040.22
2022-11-29T02:13:23.675Z,98040.73
2022-11-29T02:15:58.436Z,98042.95
2022-11-29T02:18:38.077Z,98043.29
2022-11-29T02:21:26.357Z,98041.77
2022-11-29T02:24:41.570Z,98042.27
2022-11-29T02:27:46.859Z,98040.04
2022-11-29T02:30:22.129Z,98039.34
2022-11-29T02:33:23.082Z,98039.17
2022-11-29T02:36:04.616Z,98040.55
2022-11-29T02:38:53.000Z,98040.73
2022-11-29T02:41:35.902Z,98041.41
2022-11-29T02:44:26.419Z,98043.11
2022-11-29T02:47:06.987Z,98038.66
2022-11-29T02:49:48.203Z,98040.22
2022-11-29T02:52:22.203Z,98048.15
2022-11-29T02:54:56.518Z,98048.67
2022-11-29T02:57:31.003Z,98049.89
2022-11-29T03:00:06.689Z,98045.94
2022-11-29T03:02:41.716Z,98047.31
2022-11-29T03:05:18.677Z,98051.78
2022-11-29T03:07:55.714Z,98053.00
2022-11-29T03:10:33.561Z,98054.70
2022-11-29T03:13:09.048Z,98060.55
2022-11-29T03:15:45.850Z,98062.60
2022-11-29T03:18:28.484Z,98064.84
2022-11-29T03:21:08.792Z,98067.24
2022-11-29T03:23:43.383Z,98068.44
2022-11-29T03:26:18.724Z,98065.70
2022-11-29T03:28:54.946Z,98069.81
2022-11-29T03:31:30.278Z,98068.23
2022-11-29T03:34:09.178Z,98069.77
2022-11-29T03:36:45.555Z,98073.04
2022-11-29T03:39:22.237Z,98079.40
2022-11-29T03:41:56.667Z,98079.57
2022-11-29T03:44:32.167Z,98081.10
2022-11-29T03:47:06.009Z,98081.42
2022-11-29T03:49:38.936Z,98084.15
2022-11-29T03:52:08.962Z,98088.27
2022-11-29T03:54:47.981Z,98090.69
2022-11-29T03:57:23.175Z,98091.23
2022-11-29T04:00:01.737Z,98093.46
2022-11-29T04:03:06.344Z,98090.37
2022-11-29T04:06:05.860Z,98088.31
2022-11-29T04:09:02.765Z,98089.55
2022-11-29T04:11:55.695Z,98087.00
2022-11-29T04:14:40.324Z,98083.21
2022-11-29T04:17:30.932Z,98084.61
2022-11-29T04:20:18.018Z,98085.98
2022-11-29T04:23:34.009Z,98089.25
2022-11-29T04:26:22.341Z,98090.14
2022-11-29T04:29:12.760Z,98093.08
2022-11-29T04:32:02.622Z,98092.75
2022-11-29T04:34:57.288Z,98096.37
2022-11-29T04:37:44.408Z,98095.36
2022-11-29T04:40:29.141Z,98098.61
2022-11-29T04:43:11.454Z,98102.56
2022-11-29T04:45:59.819Z,98104.13
2022-11-29T04:48:44.056Z,98107.73
2022-11-29T04:51:22.749Z,98111.86
2022-11-29T04:53:56.578Z,98110.45
2022-11-29T04:56:32.477Z,98114.75
2022-11-29T04:59:07.058Z,98118.35
2022-11-29T05:01:47.833Z,98123.34
2022-11-29T05:04:22.474Z,98128.66
2022-11-29T05:07:04.889Z,98131.77
2022-11-29T05:09:43.207Z,98133.64
2022-11-29T05:12:21.956Z,98138.09
2022-11-29T05:15:10.891Z,98143.92
2022-11-29T05:17:48.675Z,98144.78
2022-11-29T05:20:27.415Z,98146.33
2022-11-29T05:23:12.196Z,98149.07
2022-11-29T05:25:49.441Z,98152.33
2022-11-29T05:28:25.512Z,98154.39
2022-11-29T05:44:08.619Z,98157.67
2022-11-29T05:46:46.572Z,98154.92
2022-11-29T05:49:23.252Z,98157.52
2022-11-29T05:52:01.222Z,98157.69
2022-11-29T05:54:34.323Z,98161.13
2022-11-29T05:57:11.797Z,98159.92
2022-11-29T05:59:44.194Z,98161.14
2022-11-29T06:02:24.014Z,98163.21
2022-11-29T06:05:07.713Z,98167.01
2022-11-29T06:07:42.155Z,98170.30
2022-11-29T06:10:17.738Z,98170.46
2022-11-29T06:12:54.883Z,98171.83
2022-11-29T06:15:35.587Z,98168.38
2022-11-29T06:18:17.826Z,98174.75
2022-11-29T06:21:16.988Z,98176.14
2022-11-29T06:23:58.842Z,98181.98
2022-11-29T06:26:41.094Z,98185.25
2022-11-29T06:29:25.195Z,98184.23
2022-11-29T06:32:01.117Z,98180.63
2022-11-29T06:34:36.977Z,98182.02
2022-11-29T06:37:13.631Z,98182.02
2022-11-29T06:39:44.709Z,98181.31
2022-11-29T06:42:15.117Z,98183.86
2022-11-29T06:44:49.493Z,98184.02
2022-11-29T06:47:26.492Z,98186.26
2022-11-29T06:50:02.547Z,98184.20
2022-11-29T06:52:38.802Z,98190.23
2022-11-29T06:55:16.303Z,98195.05
2022-11-29T06:58:00.771Z,98194.35
2022-11-29T07:00:37.696Z,98199.67
2022-11-29T07:03:25.182Z,98200.34
2022-11-29T07:05:56.389Z,98200.34
2022-11-29T07:08:27.937Z,98206.02
2022-11-29T07:11:00.443Z,98207.91
2022-11-29T07:13:31.863Z,98211.17
2022-11-29T07:16:07.909Z,98213.42
2022-11-29T07:18:44.632Z,98219.27
2022-11-29T07:21:27.906Z,98222.53
2022-11-29T07:23:58.269Z,98222.69
2022-11-29T07:26:34.165Z,98226.14
2022-11-29T07:29:17.261Z,98228.55
2022-11-29T07:31:59.486Z,98230.95
2022-11-29T07:34:36.228Z,98231.80
2022-11-29T07:37:11.966Z,98236.95
2022-11-29T07:39:47.592Z,98239.17
2022-11-29T07:42:23.583Z,98236.75
2022-11-29T07:45:00.410Z,98236.73
2022-11-29T07:47:35.589Z,98241.54
2022-11-29T07:50:07.627Z,98243.40
2022-11-29T07:52:38.365Z,98247.17
2022-11-29T07:55:18.293Z,98244.77
2022-11-29T07:57:49.396Z,98248.70
2022-11-29T08:00:21.696Z,98247.64
2022-11-29T08:02:52.692Z,98243.49
2022-11-29T08:05:23.950Z,98246.91
2022-11-29T08:07:55.880Z,98252.23
2022-11-29T08:10:26.587Z,98253.59
2022-11-29T08:12:56.988Z,98253.91
2022-11-29T08:15:28.024Z,98253.75
2022-11-29T08:17:58.534Z,98253.73
2022-11-29T08:20:28.966Z,98259.73
2022-11-29T08:23:00.311Z,98264.36
2022-11-29T08:25:31.304Z,98268.31
2022-11-29T08:28:02.141Z,98269.19
2022-11-29T08:30:33.118Z,98273.85
2022-11-29T08:33:03.861Z,98278.33
2022-11-29T08:35:35.351Z,98279.67
2022-11-29T08:38:06.799Z,98282.25
2022-11-29T08:40:37.245Z,98282.92
2022-11-29T08:43:07.876Z,98289.64
2022-11-29T08:45:38.682Z,98292.05
2022-11-29T08:48:14.497Z,98292.92
2022-11-29T08:50:44.954Z,98295.52
2022-11-29T08:53:33.107Z,98294.48
2022-11-29T08:56:23.471Z,98297.39
2022-11-29T08:58:54.472Z,98303.06
2022-11-29T09:01:25.111Z,98309.44
2022-11-29T09:04:02.863Z,98308.73
2022-11-29T09:09:40.988Z,98311.86
2022-11-29T09:12:11.413Z,98317.38
2022-11-29T09:14:42.013Z,98321.51
2022-11-29T09:17:12.593Z,98321.35
2022-11-29T09:19:43.002Z,98324.64
2022-11-29T09:22:13.450Z,98323.42
2022-11-29T09:24:44.586Z,98327.89
2022-11-29T09:27:15.226Z,98331.83
2022-11-29T09:29:45.662Z,98337.48
2022-11-29T09:32:16.616Z,98338.16
2022-11-29T09:34:47.506Z,98337.97
2022-11-29T09:37:18.383Z,98336.58
2022-11-29T09:39:49.077Z,98339.64
2022-11-29T09:42:32.333Z,98339.60
2022-11-29T09:45:04.525Z,98343.17
2022-11-29T09:47:45.931Z,98342.48
2022-11-29T09:50:24.603Z,98341.79
2022-11-29T09:53:04.281Z,98342.46
2022-11-29T09:55:43.939Z,98345.86
2022-11-29T09:58:16.947Z,98348.77
2022-11-29T10:00:47.346Z,98348.77
2022-11-29T10:03:25.330Z,98350.15
2022-11-29T10:06:07.638Z,98350.83
2022-11-29T10:08:41.908Z,98350.99
2022-11-29T10:11:22.241Z,98352.89
2022-11-29T10:13:54.957Z,98353.89
2022-11-29T10:16:29.708Z,98352.18
2022-11-29T10:19:08.149Z,98353.05
2022-11-29T10:21:41.662Z,98349.27
2022-11-29T10:24:17.891Z,98348.91
2022-11-29T10:26:48.663Z,98349.05
2022-11-29T10:29:19.593Z,98348.33
2022-11-29T10:31:50.533Z,98350.88
2022-11-29T10:34:23.402Z,98349.13
2022-11-29T10:36:58.637Z,98350.69
2022-11-29T10:39:39.763Z,98349.67
2022-11-29T10:42:30.424Z,98349.33
2022-11-29T10:45:01.788Z,98349.86
2022-11-29T10:47:32.683Z,98348.15
2022-11-29T10:50:03.382Z,98346.05
2022-11-29T10:52:34.852Z,98349.13
2022-11-29T10:55:05.823Z,98351.15
2022-11-29T10:57:36.558Z,98354.52
2022-11-29T11:00:10.358Z,98351.02
2022-11-29T11:02:41.550Z,98353.25
2022-11-29T11:05:19.345Z,98351.02
2022-11-29T11:07:58.285Z,98354.27
2022-11-29T11:10:30.848Z,98354.59
2022-11-29T11:13:06.716Z,98352.48
2022-11-29T11:15:38.039Z,98353.00
2022-11-29T11:18:22.345Z,98356.64
2022-11-29T11:20:57.514Z,98356.84
2022-11-29T11:23:30.139Z,98357.91
2022-11-29T11:26:02.728Z,98359.65
2022-11-29T11:28:35.839Z,98360.68
2022-11-29T11:31:10.892Z,98361.89
2022-11-29T11:33:42.322Z,98365.86
2022-11-29T11:36:15.341Z,98366.39
2022-11-29T11:38:53.663Z,98369.67
2022-11-29T11:41:48.594Z,98366.36
2022-11-29T11:44:58.554Z,98363.87
2022-11-29T11:47:25.255Z,98365.89
2022-11-29T11:50:06.767Z,98368.14
2022-11-29T11:52:50.127Z,98369.69
2022-11-29T11:55:33.133Z,98373.64
2022-11-29T11:58:10.219Z,98380.34
2022-11-29T12:03:39.396Z,98372.12
2022-11-29T12:06:35.932Z,98371.02
2022-11-29T12:09:13.200Z,98371.80
2022-11-29T12:11:48.555Z,98376.20
2022-11-29T12:14:24.574Z,98370.23
2022-11-29T12:17:03.047Z,98377.40
2022-11-29T12:19:39.525Z,98379.23
2022-11-29T12:22:17.121Z,98376.75
2022-11-29T12:24:51.715Z,98373.35
2022-11-29T12:27:22.180Z,98379.33
2022-11-29T12:29:53.155Z,98381.79
2022-11-29T12:32:37.418Z,98383.44
2022-11-29T12:35:32.451Z,98391.02
2022-11-29T12:38:09.088Z,98398.48
2022-11-29T12:40:44.706Z,98401.99
2022-11-29T12:43:22.830Z,98404.64
2022-11-29T12:46:01.360Z,98408.69
2022-11-29T12:48:39.229Z,98406.00
2022-11-29T12:51:14.263Z,98406.20
2022-11-29T12:53:53.446Z,98403.66
2022-11-29T12:56:27.097Z,98403.36
2022-11-29T12:59:09.437Z,98401.66
2022-11-29T13:01:51.112Z,98403.44
2022-11-29T13:04:26.866Z,98401.90
2022-11-29T13:07:00.582Z,98404.15
2022-11-29T13:09:49.895Z,98406.91
2022-11-29T13:12:24.697Z,98406.20
2022-11-29T13:15:02.671Z,98409.30
2022-11-29T13:17:39.048Z,98411.55
2022-11-29T13:20:20.115Z,98409.88
2022-11-29T13:22:54.424Z,98410.76
2022-11-29T13:25:28.023Z,98412.10
2022-11-29T13:28:01.591Z,98411.73
2022-11-29T13:30:32.499Z,98413.09
2022-11-29T13:33:06.737Z,98413.91
2022-11-29T13:35:43.041Z,98408.36
2022-11-29T13:38:22.788Z,98409.34
2022-11-29T13:41:00.943Z,98409.10
2022-11-29T13:43:36.453Z,98411.64
2022-11-29T13:46:15.422Z,98407.63
2022-11-29T13:48:52.745Z,98409.33
2022-11-29T13:51:34.693Z,98411.52
2022-11-29T13:54:07.144Z,98412.88
2022-11-29T13:56:46.550Z,98417.52
2022-11-29T13:59:23.850Z,98417.86
2022-11-29T14:01:55.337Z,98421.88
2022-11-29T14:04:31.990Z,98425.55
2022-11-29T14:07:08.107Z,98426.08
2022-11-29T14:09:51.809Z,98428.83
2022-11-29T14:12:35.850Z,98432.23
2022-11-29T14:15:18.109Z,98437.21
2022-11-29T14:17:54.251Z,98438.09
2022-11-29T14:20:59.849Z,98440.50
2022-11-29T14:23:50.313Z,98441.54
2022-11-29T14:26:31.504Z,98440.84
2022-11-29T14:29:02.345Z,98441.89
2022-11-29T14:31:56.176Z,98445.02
2022-11-29T14:34:40.658Z,98443.34
2022-11-29T14:37:21.633Z,98447.87
2022-11-29T14:39:55.007Z,98448.23
2022-11-29T14:42:26.720Z,98453.20
2022-11-29T14:45:01.305Z,98452.85
2022-11-29T14:47:34.413Z,98460.77
2022-11-29T14:50:09.137Z,98457.02
2022-11-29T14:52:41.198Z,98458.40
2022-11-29T14:55:32.398Z,98460.48
2022-11-29T14:58:20.757Z,98459.95
2022-11-29T15:01:10.099Z,98464.30
2022-11-29T15:03:55.765Z,98465.52
2022-11-29T15:06:28.345Z,98463.13
2022-11-29T15:09:08.717Z,98467.96
2022-11-29T15:11:53.128Z,98470.89
2022-11-29T15:14:30.749Z,98473.67
2022-11-29T15:17:24.789Z,98467.13
2022-11-29T15:20:21.787Z,98470.58
2022-11-29T15:22:53.763Z,98473.90
2022-11-29T15:25:26.255Z,98472.07
2022-11-29T15:27:58.448Z,98468.98
2022-11-29T15:30:35.285Z,98473.16
2022-11-29T15:33:07.877Z,98476.11
2022-11-29T15:35:38.781Z,98478.37
2022-11-29T15:38:12.248Z,98483.06
2022-11-29T15:40:44.977Z,98483.77
2022-11-29T15:43:16.583Z,98486.88
2022-11-29T15:45:50.679Z,98491.87
2022-11-29T15:48:23.726Z,98495.50
2022-11-29T15:50:54.645Z,98495.86
2022-11-29T15:53:28.480Z,98499.84
2022-11-29T15:55:59.731Z,98495.39
2022-11-29T15:58:32.330Z,98497.82
2022-11-29T16:01:03.590Z,98501.45
2022-11-29T16:03:35.816Z,98505.11
2022-11-29T16:06:16.698Z,98503.94
2022-11-29T16:08:47.619Z,98502.77
2022-11-29T16:11:21.084Z,98503.98
2022-11-29T16:14:17.844Z,98505.04
2022-11-29T16:16:51.314Z,98504.38
2022-11-29T16:19:36.862Z,98501.79
2022-11-29T16:22:19.204Z,98505.09
2022-11-29T16:25:00.881Z,98505.27
2022-11-29T16:27:34.569Z,98506.30
2022-11-29T16:30:06.734Z,98507.33
2022-11-29T16:32:39.037Z,98509.23
2022-11-29T16:35:14.183Z,98512.84
2022-11-29T16:37:46.335Z,98516.63
2022-11-29T16:40:24.544Z,98514.23
2022-11-29T16:43:19.286Z,98514.05
2022-11-29T16:45:50.425Z,98512.50
2022-11-29T16:48:37.981Z,98513.01
2022-11-29T16:51:27.187Z,98512.67
2022-11-29T16:53:57.643Z,98513.88
2022-11-29T16:56:30.222Z,98518.02
2022-11-29T16:59:21.081Z,98520.09
2022-11-29T17:01:58.426Z,98526.96
2022-11-29T17:04:29.176Z,98527.48
2022-11-29T17:06:59.896Z,98527.82
2022-11-29T17:09:34.950Z,98530.75
2022-11-29T17:12:05.789Z,98528.17
2022-11-29T17:14:36.398Z,98528.86
2022-11-29T17:17:06.988Z,98530.59
2022-11-29T17:19:37.844Z,98533.50
2022-11-29T17:22:08.371Z,98532.11
2022-11-29T17:24:46.218Z,98533.67
2022-11-29T17:27:18.515Z,98531.77
2022-11-29T17:29:49.064Z,98532.46
2022-11-29T17:32:24.914Z,98536.57
2022-11-29T17:34:57.133Z,98540.71
2022-11-29T17:37:27.548Z,98540.52
2022-11-29T17:39:58.153Z,98537.59
2022-11-29T17:42:28.574Z,98542.41
2022-11-29T17:44:58.939Z,98541.54
2022-11-29T17:47:32.516Z,98545.32
2022-11-29T17:50:03.160Z,98547.89
2022-11-29T17:52:34.079Z,98550.30
2022-11-29T17:55:04.750Z,98544.28
2022-11-29T17:57:35.738Z,98545.46
2022-11-29T18:00:08.812Z,98544.27
2022-11-29T18:02:38.043Z,98546.48
2022-11-29T18:05:10.196Z,98544.24
2022-11-29T18:07:57.940Z,98548.89
2022-11-29T18:10:29.232Z,98556.95
2022-11-29T18:12:59.787Z,98558.66
2022-11-29T18:15:30.214Z,98563.13
2022-11-29T18:18:00.748Z,98560.90
2022-11-29T18:20:33.061Z,98560.38
2022-11-29T18:23:07.795Z,98568.98
2022-11-29T18:25:39.842Z,98562.79
2022-11-29T18:28:11.606Z,98563.12
2022-11-29T18:30:42.245Z,98566.40
2022-11-29T18:33:12.660Z,98568.11
2022-11-29T18:35:43.157Z,98576.05
2022-11-29T18:38:15.731Z,98577.96
2022-11-29T18:40:47.540Z,98582.44
2022-11-29T18:43:22.006Z,98585.19
2022-11-29T18:46:06.365Z,98581.77
2022-11-29T18:48:40.550Z,98586.26
2022-11-29T18:51:14.018Z,98590.21
2022-11-29T18:53:50.516Z,98592.98
2022-11-29T18:56:22.675Z,98594.36
2022-11-29T18:58:58.435Z,98593.52
2022-11-29T19:01:30.874Z,98596.09
2022-11-29T19:04:12.463Z,98594.89
2022-11-29T19:06:43.602Z,98592.48
2022-11-29T19:09:16.616Z,98594.04
2022-11-29T19:11:45.606Z,98595.07
2022-11-29T19:14:16.362Z,98594.90
2022-11-29T19:16:49.932Z,98595.75
2022-11-29T19:19:21.670Z,98599.88
2022-11-29T19:21:52.657Z,98598.67
2022-11-29T19:24:23.183Z,98600.91
2022-11-29T19:26:55.766Z,98605.39
2022-11-29T19:29:26.419Z,98606.09
2022-11-29T19:31:58.010Z,98607.28
2022-11-29T19:34:32.883Z,98609.01
2022-11-29T19:37:03.693Z,98608.15
2022-11-29T19:39:38.118Z,98606.61
2022-11-29T19:42:09.038Z,98606.43
2022-11-29T19:45:14.963Z,98606.08
2022-11-29T19:47:33.447Z,98610.71
2022-11-29T19:50:05.263Z,98610.53
2022-11-29T19:52:36.409Z,98615.69
2022-11-29T19:55:10.448Z,98618.09
2022-11-29T19:57:44.399Z,98619.45
2022-11-29T20:00:17.837Z,98622.91
2022-11-29T20:02:48.482Z,98614.81
2022-11-29T20:05:22.159Z,98617.74
2022-11-29T20:07:57.597Z,98623.24
2022-11-29T20:10:28.811Z,98616.71
2022-11-29T20:13:04.669Z,98613.45
2022-11-29T20:15:36.059Z,98613.43
2022-11-29T20:18:11.175Z,98613.27
2022-11-29T20:20:42.560Z,98620.14
2022-11-29T20:23:21.196Z,98622.38
2022-11-29T20:25:59.846Z,98621.88
2022-11-29T20:28:31.702Z,98619.12
2022-11-29T20:31:09.042Z,98618.08
2022-11-29T20:33:43.020Z,98620.15
2022-11-29T20:36:30.233Z,98623.41
2022-11-29T20:39:11.894Z,98620.98
2022-11-29T20:41:50.878Z,98624.77
2022-11-29T20:44:25.610Z,98623.39
2022-11-29T20:46:57.905Z,98625.30
2022-11-29T20:49:33.968Z,98626.15
2022-11-29T20:52:12.884Z,98630.80
2022-11-29T20:54:49.922Z,98635.77
2022-11-29T20:57:22.914Z,98639.05
2022-11-29T20:59:57.085Z,98634.91
2022-11-29T21:02:29.079Z,98642.98
2022-11-29T21:11:10.446Z,98635.60
2022-11-29T21:13:42.248Z,98639.03
2022-11-29T21:16:15.624Z,98638.69
2022-11-29T21:18:48.489Z,98636.80
2022-11-29T21:21:26.098Z,98639.21
2022-11-29T21:24:04.059Z,98641.80
2022-11-29T21:26:41.522Z,98644.04
2022-11-29T21:29:18.198Z,98645.23
2022-11-29T21:31:57.170Z,98648.67
2022-11-29T21:34:27.592Z,98650.92
2022-11-29T21:36:59.545Z,98649.55
2022-11-29T21:39:34.149Z,98646.82
2022-11-29T21:42:05.361Z,98646.98
2022-11-29T21:44:36.675Z,98644.41
2022-11-29T21:47:07.310Z,98645.61
2022-11-29T21:49:38.066Z,98650.91
2022-11-29T21:52:08.807Z,98647.30
2022-11-29T21:54:40.330Z,98645.76
2022-11-29T21:57:10.789Z,98648.67
2022-11-29T21:59:41.296Z,98649.19
2022-11-29T22:02:11.868Z,98650.54
2022-11-29T22:04:42.518Z,98645.90
2022-11-29T22:07:13.019Z,98647.11
2022-11-29T22:09:43.564Z,98648.48
2022-11-29T22:12:32.936Z,98645.91
2022-11-29T22:15:04.518Z,98647.45
2022-11-29T22:17:35.135Z,98643.65
2022-11-29T22:20:06.739Z,98643.98
2022-11-29T22:22:37.370Z,98639.84
2022-11-29T22:25:08.762Z,98640.86
2022-11-29T22:27:39.297Z,98641.05
2022-11-29T22:30:11.332Z,98644.31
2022-11-29T22:32:41.712Z,98643.28
2022-11-29T22:35:12.551Z,98641.72
2022-11-29T22:37:43.007Z,98642.75
2022-11-29T22:40:15.301Z,98642.40
2022-11-29T22:42:45.788Z,98646.86
2022-11-29T22:45:16.636Z,98644.42
2022-11-29T22:47:47.274Z,98642.17
2022-11-29T22:50:17.940Z,98639.92
2022-11-29T22:52:48.671Z,98646.09
2022-11-29T22:55:19.299Z,98642.98
2022-11-29T22:57:51.650Z,98648.45
2022-11-29T23:00:22.624Z,98650.50
2022-11-29T23:02:53.187Z,98654.11
2022-11-29T23:05:24.413Z,98659.95
2022-11-29T23:08:00.683Z,98655.80
2022-11-29T23:10:31.286Z,98654.59
2022-11-29T23:13:02.903Z,98657.68
2022-11-29T23:15:33.563Z,98660.45
2022-11-29T23:18:04.461Z,98663.23
2022-11-29T23:20:34.741Z,98668.58
2022-11-29T23:28:38.774Z,98676.55
2022-11-29T23:31:09.346Z,98680.70
2022-11-29T23:33:39.966Z,98680.70
2022-11-29T23:36:13.342Z,98686.05
2022-11-29T23:38:44.729Z,98680.74
2022-11-29T23:41:15.591Z,98679.55
2022-11-29T23:43:46.388Z,98680.09
2022-11-29T23:46:19.052Z,98680.96
2022-11-29T23:48:50.030Z,98677.01
2022-11-29T23:51:23.772Z,98673.23
2022-11-29T23:53:55.089Z,98670.13
2022-11-29T23:56:25.810Z,98669.98
2022-11-29T23:58:56.185Z,98671.34
